Airfield :
LOGIN :

Register | Disclaimer

   EN    FR    IT 

 










Legend :    VFR   Marginal VFR   IFR   Intensive IFR   Very Intensive IFR
Visi :
Ceiling :
>= 8 km
>= 3000ft
5 to 8 km
1000 to 3000 ft
1500m to 5 km
500 to 1000 ft
800 to 1500m
200 to 500 ft
< 800m
< 200 ft
Symbols :   Thunderstorms  Fog  Heavy snow  Heavy precipitations  Wind > 20 kt
SIGMETs :     Misc.  Thunderstorms  Icing  Turbulence  Mountain Waves  Volcanic Ashes







- Airport Elevation : 1521 ft
- IATA code : NCY
- Download approach charts


LFLP - Annecy

CURRENT METAR :
  • 252300Z AUTO 34011KT CAVOK M05/M11 Q1013

EXPIRED METARs :
  • 252230Z AUTO 34011KT CAVOK M05/M11 Q1013
  • 252200Z AUTO 35012KT CAVOK M05/M11 Q1013
  • 252130Z AUTO 35012KT CAVOK M04/M11 Q1013
  • 252100Z AUTO 34013KT 310V010 CAVOK M04/M11 Q1013
  • 252030Z AUTO 35013KT CAVOK M04/M11 Q1013

TAF TAF LFLP
Valid from the 25 at 15:00 until the 26 at 15:00 UTC


251400Z 2515/2615 36012KT 9999 BKN025
BECMG 2516/2519 CAVOK
No reported NOTAMs for that airfield.
3 SIGMETs reported for the Marseille FIR (LFMM) :
 
Severe turbulence
LFMM SIGMET 5 VALID 260000/260400 LFPW
LFMM MARSEILLE FIR/UIR SEV TURB FCST WI N4500 E00415 - N4500 E00515 - N4230 E00530 - N4230 E00415 - N4500 E00415 SFC/FL050 STNR NC=
Severe turbulence
LFMM SIGMET 4 VALID 252000/260000 LFPW
LFMM MARSEILLE FIR/UIR SEV TURB FCST WI N4345 E00745 - N4315 E00930 - N4145 E00745 - N4300 E00615 - N4345 E00745 SFC/FL080 STNR WKN=
Severe turbulence
LFMM SIGMET 3 VALID 252000/260000 LFPW
LFMM MARSEILLE FIR/UIR SEV TURB FCST WI N4500 E00415 - N4500 E00515 - N4230 E00530 - N4230 E00415 - N4500 E00415 SFC/FL050 STNR NC=



MET'MAP, your aeronautical weather chart ! - Copyright ORBIFLY December 2007 - Disclaimer

ORBIFLY MET'MAP TEAM :

Programming & Development : Alexandra Zaïnal
Concept & Development : Baudouin d'Aumeries
Co-Development & Prog : Marc-Olivier Méhu
Technical & hardware support : Manuel Goepfert

Contact : metmap@orbifly.com




SOURCES & CREDITS :

   NOAA